Time;durP1;ratioP1;P1;durP2;ratioP2;P2;SDS_P1;SDS_P2;PMS_P1;PMS_P2;Temp;Humidity;BMP_temperature;BMP_pressure;BME280_temperature;BME280_humidity;BME280_pressure;Samples;Min_cycle;Max_cycle;Signal;HPM_P1;HPM_P2
2022/05/30 00:01:07;;;;;;;4.60;2.00;;;;;;;13.23;57.75;100118.09;4927698;29;20299;-71
2022/05/30 00:03:35;;;;;;;3.90;1.50;;;;;;;13.21;57.76;100112.94;4926843;29;20296;-71
2022/05/30 00:06:03;;;;;;;2.60;1.57;;;;;;;13.19;57.60;100098.97;4927498;29;20221;-72
2022/05/30 00:08:30;;;;;;;2.13;1.40;;;;;;;13.14;57.70;100102.16;4929242;29;20325;-70
2022/05/30 00:11:02;;;;;;;2.53;1.50;;;;;;;13.14;57.77;100098.66;4929148;29;20308;-70
2022/05/30 00:13:30;;;;;;;2.57;1.40;;;;;;;13.08;57.83;100097.50;4929871;29;20297;-70
2022/05/30 00:16:04;;;;;;;2.53;1.57;;;;;;;13.07;57.72;100103.81;4928982;29;20223;-70
2022/05/30 00:18:31;;;;;;;2.83;1.57;;;;;;;13.04;57.80;100104.16;4929429;29;20250;-70
2022/05/30 00:20:59;;;;;;;3.10;1.53;;;;;;;12.99;58.11;100101.19;4931246;29;20231;-70
2022/05/30 00:23:27;;;;;;;3.50;1.80;;;;;;;12.97;57.94;100091.72;4927502;29;20644;-70
2022/05/30 00:25:55;;;;;;;2.50;1.67;;;;;;;12.95;58.02;100099.88;4930992;29;20213;-70
2022/05/30 00:28:24;;;;;;;2.80;1.67;;;;;;;12.91;58.13;100098.56;4929209;29;20230;-70
2022/05/30 00:30:52;;;;;;;5.03;1.77;;;;;;;12.91;57.94;100093.25;4927983;29;20286;-70
2022/05/30 00:33:22;;;;;;;5.30;1.83;;;;;;;12.91;58.01;100093.25;4925153;29;20659;-70
2022/05/30 00:35:49;;;;;;;2.60;1.50;;;;;;;12.93;58.04;100098.41;4927136;29;20218;-70
2022/05/30 00:38:21;;;;;;;3.00;1.70;;;;;;;12.94;57.87;100087.56;4930594;29;20259;-70
2022/05/30 00:40:49;;;;;;;3.60;1.87;;;;;;;12.86;58.14;100084.94;4927647;29;20216;-70
2022/05/30 00:43:22;;;;;;;3.63;1.63;;;;;;;12.82;58.17;100088.97;4927281;29;20203;-70
2022/05/30 00:45:55;;;;;;;2.73;1.60;;;;;;;12.81;58.57;100087.28;4929772;29;20236;-70
2022/05/30 00:48:32;;;;;;;2.43;1.50;;;;;;;12.82;58.25;100079.16;4932086;29;20209;-70
2022/05/30 00:51:03;;;;;;;2.70;1.60;;;;;;;12.79;58.40;100079.47;4926179;29;20222;-70
2022/05/30 00:53:33;;;;;;;3.40;1.43;;;;;;;12.78;58.39;100075.16;4927176;29;20280;-70
2022/05/30 00:56:03;;;;;;;3.40;1.60;;;;;;;12.77;58.41;100075.31;4925451;29;21116;-70
2022/05/30 00:58:45;;;;;;;4.17;1.73;;;;;;;12.82;58.25;100078.31;4929537;29;20236;-70
2022/05/30 01:01:13;;;;;;;1.80;1.20;;;;;;;12.83;58.13;100072.00;4926385;29;20220;-70
2022/05/30 01:06:34;;;;;;;3.50;1.50;;;;;;;12.78;58.42;100066.34;4931264;29;20270;-70
2022/05/30 01:09:06;;;;;;;4.83;1.80;;;;;;;12.75;58.53;100066.72;4934466;29;20208;-69
2022/05/30 01:11:48;;;;;;;2.67;1.50;;;;;;;12.73;58.60;100068.69;4928893;29;20224;-69
2022/05/30 01:14:16;;;;;;;2.63;1.70;;;;;;;12.77;58.45;100064.69;4927399;29;20204;-70
2022/05/30 01:16:44;;;;;;;3.53;1.50;;;;;;;12.73;58.58;100068.69;4929478;29;20502;-70
2022/05/30 01:19:25;;;;;;;3.23;1.60;;;;;;;12.70;58.66;100066.38;4926728;29;20244;-70
2022/05/30 01:22:09;;;;;;;3.03;1.50;;;;;;;12.64;58.79;100067.06;4929004;29;21038;-70
2022/05/30 01:24:47;;;;;;;3.60;2.00;;;;;;;12.63;58.76;100068.91;4926602;29;20301;-70
2022/05/30 01:27:27;;;;;;;2.97;1.97;;;;;;;12.61;58.91;100067.41;4926055;29;20306;-71
2022/05/30 01:30:02;;;;;;;3.73;1.63;;;;;;;12.58;59.04;100070.38;4928900;29;20665;-71
2022/05/30 01:32:30;;;;;;;3.10;1.60;;;;;;;12.52;59.32;100063.09;4924528;29;20211;-71
2022/05/30 01:34:57;;;;;;;2.93;1.70;;;;;;;12.48;59.36;100067.13;4928164;29;20307;-71
2022/05/30 01:37:26;;;;;;;4.40;1.70;;;;;;;12.54;59.45;100069.09;4925795;29;20403;-70
2022/05/30 01:39:54;;;;;;;5.27;2.23;;;;;;;12.51;59.25;100064.09;4926851;29;20228;-70
2022/05/30 01:42:21;;;;;;;3.50;1.70;;;;;;;12.49;59.33;100061.59;4925321;29;20649;-70
2022/05/30 01:44:49;;;;;;;3.37;1.90;;;;;;;12.44;59.79;100058.63;4928820;29;20319;-70
2022/05/30 01:47:18;;;;;;;3.90;2.03;;;;;;;12.38;59.69;100061.97;4928464;29;20299;-71
2022/05/30 01:49:46;;;;;;;4.43;1.90;;;;;;;12.35;59.84;100057.81;4926465;29;20218;-70
2022/05/30 01:52:14;;;;;;;4.30;2.37;;;;;;;12.38;59.83;100052.19;4927189;29;20241;-70
2022/05/30 01:54:41;;;;;;;3.63;1.70;;;;;;;12.40;59.75;100046.69;4926979;29;20550;-70
2022/05/30 01:57:09;;;;;;;4.13;1.80;;;;;;;12.35;59.84;100046.34;4924524;29;20689;-70
2022/05/30 01:59:37;;;;;;;4.43;2.20;;;;;;;12.33;60.00;100046.53;4925824;29;20291;-70
2022/05/30 02:02:05;;;;;;;3.63;2.10;;;;;;;12.33;60.22;100043.88;4929387;29;20450;-70
2022/05/30 02:04:34;;;;;;;4.00;2.23;;;;;;;12.35;60.19;100044.53;4926021;29;20576;-71
2022/05/30 02:07:02;;;;;;;5.63;2.00;;;;;;;12.28;60.37;100040.91;4926262;29;20204;-70
2022/05/30 02:09:30;;;;;;;3.93;2.10;;;;;;;12.26;60.48;100042.06;4927456;29;20208;-70
2022/05/30 02:11:58;;;;;;;4.73;3.20;;;;;;;12.28;60.51;100040.91;4928408;29;20256;-70
2022/05/30 02:14:26;;;;;;;3.03;1.90;;;;;;;12.30;60.52;100046.88;4923668;29;20291;-70
2022/05/30 02:17:01;;;;;;;4.53;2.03;;;;;;;12.29;60.55;100044.38;4927757;29;20216;-70
2022/05/30 02:19:31;;;;;;;4.83;2.43;;;;;;;12.28;60.65;100040.91;4926986;29;20219;-70
2022/05/30 02:22:01;;;;;;;7.40;2.47;;;;;;;12.26;60.77;100045.53;4925579;29;20230;-70
2022/05/30 02:24:29;;;;;;;4.27;2.60;;;;;;;12.22;60.70;100036.25;4923587;29;20223;-70
2022/05/30 02:26:57;;;;;;;3.93;2.27;;;;;;;12.24;60.76;100030.75;4928190;29;20212;-70
2022/05/30 02:29:25;;;;;;;3.50;2.40;;;;;;;12.26;60.67;100036.75;4925619;29;20339;-70
2022/05/30 02:31:53;;;;;;;4.30;2.60;;;;;;;12.23;60.89;100035.25;4927863;29;20211;-71
2022/05/30 02:37:07;;;;;;;5.47;2.60;;;;;;;12.28;60.67;100029.44;4925999;29;20208;-70
2022/05/30 02:39:35;;;;;;;4.37;2.50;;;;;;;12.28;60.81;100027.59;4927622;29;20745;-70
2022/05/30 02:42:04;;;;;;;4.90;2.53;;;;;;;12.26;60.85;100024.28;4926774;29;20211;-70
2022/05/30 02:44:32;;;;;;;4.07;2.40;;;;;;;12.22;60.98;100027.47;4922614;29;20209;-69
2022/05/30 02:46:59;;;;;;;5.10;2.73;;;;;;;12.19;61.32;100023.31;4927855;29;20331;-69
2022/05/30 02:49:28;;;;;;;4.47;2.70;;;;;;;12.15;61.41;100023.78;4930547;29;20851;-69
2022/05/30 02:51:57;;;;;;;4.70;2.80;;;;;;;12.10;61.49;100018.16;4932704;29;20302;-69
2022/05/30 02:54:27;;;;;;;5.53;2.73;;;;;;;12.07;61.75;100025.47;4930184;29;20208;-69
2022/05/30 02:56:57;;;;;;;3.73;2.90;;;;;;;12.09;61.60;100027.97;4930152;29;20212;-69
2022/05/30 02:59:25;;;;;;;5.10;2.90;;;;;;;12.06;61.68;100036.25;4930050;29;20215;-70
2022/05/30 03:01:53;;;;;;;5.73;3.13;;;;;;;12.02;62.07;100032.31;4928956;29;20208;-70
2022/05/30 03:04:21;;;;;;;4.80;3.17;;;;;;;12.02;61.92;100042.94;4932045;29;20879;-70
2022/05/30 03:06:51;;;;;;;4.00;3.03;;;;;;;12.01;62.11;100035.94;4930750;29;20262;-70
2022/05/30 03:09:19;;;;;;;5.47;2.90;;;;;;;12.02;61.89;100038.44;4929565;29;20676;-70
2022/05/30 03:11:48;;;;;;;4.70;3.00;;;;;;;12.01;62.03;100035.94;4926826;29;20753;-70
2022/05/30 03:14:16;;;;;;;4.10;2.80;;;;;;;11.95;62.16;100044.59;4926074;29;20296;-70
2022/05/30 03:16:45;;;;;;;5.70;3.33;;;;;;;11.90;62.17;100041.59;4927213;29;20216;-70
2022/05/30 03:19:19;;;;;;;6.50;3.07;;;;;;;11.89;62.57;100047.91;4928188;29;20243;-70
2022/05/30 03:21:52;;;;;;;9.50;3.37;;;;;;;11.85;62.74;100044.78;4929320;29;20683;-69
2022/05/30 03:24:22;;;;;;;6.33;3.77;;;;;;;11.85;62.89;100051.91;4932283;29;20227;-70
2022/05/30 03:26:51;;;;;;;5.83;3.73;;;;;;;11.83;62.95;100059.19;4927727;29;20238;-70
2022/05/30 03:29:22;;;;;;;6.40;3.03;;;;;;;11.84;63.05;100052.91;4930182;29;20310;-70
2022/05/30 03:31:50;;;;;;;7.13;4.03;;;;;;;11.87;63.05;100061.38;4928709;29;20244;-70
2022/05/30 03:34:18;;;;;;;6.73;3.60;;;;;;;11.84;63.08;100060.88;4926998;29;20899;-70
2022/05/30 03:36:48;;;;;;;7.93;4.00;;;;;;;11.82;63.25;100062.84;4927837;29;20232;-70
2022/05/30 03:39:15;;;;;;;9.83;4.37;;;;;;;11.80;63.53;100063.00;4930187;29;20776;-70
2022/05/30 03:41:43;;;;;;;8.37;3.70;;;;;;;11.79;63.48;100068.50;4928100;29;20716;-70
2022/05/30 03:44:14;;;;;;;6.13;4.13;;;;;;;11.79;63.52;100077.28;4929189;29;20301;-71
2022/05/30 03:46:42;;;;;;;7.13;4.43;;;;;;;11.81;63.29;100074.47;4926645;29;20230;-70
2022/05/30 03:49:10;;;;;;;7.27;4.10;;;;;;;11.82;63.33;100069.00;4927971;29;20657;-70
2022/05/30 03:51:38;;;;;;;8.23;4.80;;;;;;;11.79;63.38;100074.63;4928628;29;20208;-70
2022/05/30 03:54:06;;;;;;;6.93;3.63;;;;;;;11.77;63.49;100070.50;4928775;29;20660;-71
2022/05/30 03:56:36;;;;;;;10.83;4.67;;;;;;;11.75;63.71;100080.44;4928378;29;20212;-70
2022/05/30 03:59:06;;;;;;;10.13;4.30;;;;;;;11.70;63.70;100072.94;4929494;29;20213;-70
2022/05/30 04:01:37;;;;;;;5.67;4.00;;;;;;;11.74;63.74;100086.72;4927453;29;20306;-70
2022/05/30 04:04:05;;;;;;;7.17;4.47;;;;;;;11.77;63.68;100081.13;4929521;29;20235;-71
2022/05/30 04:06:33;;;;;;;6.50;4.23;;;;;;;11.74;63.71;100084.91;4932846;29;20235;-70
2022/05/30 04:09:01;;;;;;;7.97;5.00;;;;;;;11.78;63.62;100086.28;4931382;29;20264;-70
2022/05/30 04:11:30;;;;;;;6.90;3.90;;;;;;;11.79;63.44;100076.47;4927314;29;20219;-69
2022/05/30 04:14:02;;;;;;;6.73;3.83;;;;;;;11.77;63.38;100081.97;4929033;29;20223;-69
2022/05/30 04:16:31;;;;;;;6.80;4.17;;;;;;;11.80;63.49;100091.41;4929922;29;20208;-70
2022/05/30 04:19:03;;;;;;;7.27;4.30;;;;;;;11.80;63.58;100096.72;4929430;29;20222;-70
2022/05/30 04:21:31;;;;;;;5.70;4.03;;;;;;;11.79;63.49;100092.41;4928408;29;20220;-71
2022/05/30 04:24:01;;;;;;;6.13;3.90;;;;;;;11.78;63.69;100102.22;4930670;29;20209;-71
2022/05/30 04:26:34;;;;;;;7.43;3.97;;;;;;;11.80;63.64;100094.06;4931725;29;20270;-71
2022/05/30 04:29:02;;;;;;;5.57;3.60;;;;;;;11.77;63.75;100092.59;4931678;29;20772;-69
2022/05/30 04:31:30;;;;;;;6.70;4.13;;;;;;;11.79;63.66;100092.41;4927566;29;20248;-70
2022/05/30 04:33:57;;;;;;;5.93;3.90;;;;;;;11.83;63.73;100099.06;4929772;29;20230;-69
2022/05/30 04:36:27;;;;;;;7.50;3.70;;;;;;;11.85;63.83;100094.41;4926604;29;20243;-70
2022/05/30 04:38:57;;;;;;;4.77;3.50;;;;;;;11.84;63.97;100098.06;4931959;29;20218;-70
2022/05/30 04:41:25;;;;;;;6.80;4.23;;;;;;;11.85;63.92;100099.72;4932787;29;20452;-70
2022/05/30 04:43:53;;;;;;;5.13;3.83;;;;;;;11.88;64.04;100102.03;4930620;29;20295;-70
2022/05/30 04:46:25;;;;;;;5.10;3.70;;;;;;;11.94;63.96;100098.72;4929825;29;20813;-70
2022/05/30 04:48:53;;;;;;;5.77;3.90;;;;;;;12.01;63.92;100094.41;4930386;29;20683;-70
2022/05/30 04:51:21;;;;;;;5.73;3.67;;;;;;;12.04;63.94;100099.41;4925216;29;20213;-71
2022/05/30 04:53:50;;;;;;;9.30;3.93;;;;;;;12.03;64.06;100103.06;4925014;29;20208;-69
2022/05/30 04:56:21;;;;;;;9.43;4.70;;;;;;;12.06;64.12;100103.53;4928395;29;20244;-70
2022/05/30 04:58:54;;;;;;;5.00;3.53;;;;;;;12.11;64.04;100105.72;4924991;29;20206;-70
2022/05/30 05:01:22;;;;;;;7.73;4.07;;;;;;;12.17;63.97;100109.50;4924521;29;20246;-71
2022/05/30 05:03:50;;;;;;;8.67;4.00;;;;;;;12.20;64.18;100107.38;4928812;29;20204;-70
2022/05/30 05:06:20;;;;;;;6.93;4.00;;;;;;;12.23;63.99;100109.66;4935919;29;20292;-69
2022/05/30 05:08:55;;;;;;;7.17;3.80;;;;;;;12.47;63.05;100116.81;4933084;29;20216;-70
2022/05/30 05:11:30;;;;;;;6.77;3.90;;;;;;;12.51;63.33;100119.94;4929848;29;20219;-70
2022/05/30 05:13:58;;;;;;;15.57;4.60;;;;;;;12.53;63.40;100129.41;4928629;29;20215;-70
2022/05/30 05:16:28;;;;;;;6.70;3.77;;;;;;;12.58;63.13;100124.41;4925585;29;20243;-69
2022/05/30 05:18:57;;;;;;;4.80;3.57;;;;;;;12.66;62.94;100118.28;4929660;29;20240;-70
2022/05/30 05:21:27;;;;;;;4.83;3.50;;;;;;;12.77;62.86;100116.06;4928637;29;20315;-70
2022/05/30 05:23:58;;;;;;;7.93;3.87;;;;;;;12.77;63.25;100123.22;4928686;29;20244;-70
2022/05/30 05:26:27;;;;;;;6.60;4.00;;;;;;;12.85;62.54;100117.84;4928936;29;20239;-70
2022/05/30 05:28:55;;;;;;;7.43;3.90;;;;;;;12.88;62.46;100117.53;4929421;29;20229;-70
2022/05/30 05:31:25;;;;;;;6.83;3.83;;;;;;;12.91;62.81;100119.84;4931303;29;20300;-70
2022/05/30 05:33:57;;;;;;;6.30;3.73;;;;;;;12.87;62.87;100121.19;4928537;29;20221;-70
2022/05/30 05:36:27;;;;;;;7.30;4.03;;;;;;;12.93;62.83;100125.81;4933001;29;20371;-70
2022/05/30 05:38:55;;;;;;;7.40;3.70;;;;;;;12.92;63.22;100126.84;4927851;29;20212;-70
2022/05/30 05:41:24;;;;;;;7.00;3.90;;;;;;;12.95;63.48;100126.47;4924551;29;20323;-70
2022/05/30 05:43:53;;;;;;;7.87;3.73;;;;;;;13.00;62.99;100132.13;4929752;29;20744;-70
2022/05/30 05:46:23;;;;;;;7.53;3.70;;;;;;;13.06;62.99;100133.28;4929871;29;20212;-71
2022/05/30 05:48:52;;;;;;;4.57;3.30;;;;;;;13.14;62.89;100127.94;4929611;29;20226;-71
2022/05/30 05:51:21;;;;;;;4.87;2.90;;;;;;;13.17;62.73;100123.13;4931286;29;20493;-71
2022/05/30 05:53:49;;;;;;;9.87;3.13;;;;;;;13.27;62.46;100136.22;4929209;29;20733;-70
2022/05/30 05:56:19;;;;;;;9.40;3.03;;;;;;;13.34;62.21;100131.03;4935296;29;20203;-70
2022/05/30 05:58:49;;;;;;;5.90;3.40;;;;;;;13.40;61.88;100125.81;4927726;29;20266;-71
2022/05/30 06:01:19;;;;;;;4.87;2.83;;;;;;;13.45;61.64;100134.13;4930363;29;20201;-70
2022/05/30 06:03:48;;;;;;;4.90;3.10;;;;;;;13.44;61.76;100121.00;4929431;29;20302;-71
2022/05/30 06:06:15;;;;;;;5.37;3.23;;;;;;;13.48;62.12;100124.94;4927999;29;20676;-70
2022/05/30 06:08:44;;;;;;;5.57;3.47;;;;;;;13.54;61.95;100130.38;4929284;29;20236;-70
2022/05/30 06:11:12;;;;;;;6.53;3.33;;;;;;;13.61;61.74;100129.72;4926883;29;20205;-70
2022/05/30 06:13:42;;;;;;;5.00;3.10;;;;;;;13.70;61.47;100129.50;4926145;29;20212;-70
2022/05/30 06:16:14;;;;;;;7.43;3.23;;;;;;;13.76;61.06;100138.59;4928340;29;20287;-70
2022/05/30 06:18:42;;;;;;;7.53;3.20;;;;;;;13.83;60.80;100137.72;4927477;29;20710;-70
2022/05/30 06:21:10;;;;;;;5.93;3.20;;;;;;;13.85;60.86;100135.72;4926488;29;20731;-70
2022/05/30 06:23:38;;;;;;;9.70;3.70;;;;;;;13.94;60.53;100142.63;4930897;29;20679;-69
2022/05/30 06:26:07;;;;;;;12.20;2.93;;;;;;;13.97;61.67;100149.47;4930839;29;20219;-70
2022/05/30 06:28:40;;;;;;;4.63;2.57;;;;;;;14.10;60.82;100151.50;4921165;29;20239;-73
2022/05/30 06:31:09;;;;;;;6.30;2.70;;;;;;;14.20;60.43;100150.28;4934896;29;20284;-70
2022/05/30 06:33:39;;;;;;;5.40;2.77;;;;;;;14.29;59.98;100140.38;4932538;29;20644;-70
2022/05/30 06:36:10;;;;;;;9.63;3.83;;;;;;;14.42;59.51;100137.13;4934322;29;20305;-71
2022/05/30 06:38:39;;;;;;;6.43;2.70;;;;;;;14.45;59.32;100142.91;4927924;29;20274;-72
2022/05/30 06:41:12;;;;;;;9.17;2.57;;;;;;;14.48;59.30;100147.06;4929727;29;20323;-72
2022/05/30 06:43:40;;;;;;;5.37;2.73;;;;;;;14.53;59.17;100150.84;4928949;29;20257;-72
2022/05/30 06:46:09;;;;;;;8.77;3.50;;;;;;;14.59;58.91;100154.63;4933783;29;20216;-71
2022/05/30 06:48:38;;;;;;;5.30;3.00;;;;;;;14.57;58.35;100152.16;4932313;29;20247;-70
2022/05/30 06:51:09;;;;;;;6.33;2.57;;;;;;;14.59;58.15;100150.13;4926985;29;20574;-71
2022/05/30 06:53:37;;;;;;;7.97;2.83;;;;;;;14.66;58.27;100161.72;4929039;29;20222;-69
2022/05/30 06:56:13;;;;;;;8.30;2.60;;;;;;;14.75;58.17;100153.66;4936769;29;20259;-70
2022/05/30 06:58:41;;;;;;;4.53;2.00;;;;;;;14.81;57.15;100158.25;4934659;29;20215;-70
2022/05/30 07:01:09;;;;;;;5.00;2.20;;;;;;;14.88;57.62;100160.00;4931067;29;21413;-69
2022/05/30 07:03:39;;;;;;;5.23;2.80;;;;;;;14.96;57.27;100161.75;4930573;29;20218;-69
2022/05/30 07:06:08;;;;;;;8.60;2.80;;;;;;;15.00;56.76;100152.38;4931511;29;20216;-69
2022/05/30 07:08:35;;;;;;;5.13;2.70;;;;;;;15.08;56.40;100157.59;4929856;29;20331;-70
2022/05/30 07:11:06;;;;;;;4.70;2.00;;;;;;;15.14;56.61;100153.34;4930957;29;20893;-69
2022/05/30 07:13:34;;;;;;;3.60;1.90;;;;;;;15.20;56.07;100152.63;4934289;29;20227;-68
2022/05/30 07:16:02;;;;;;;5.73;2.47;;;;;;;15.20;55.86;100153.47;4931087;29;20215;-69
2022/05/30 07:18:32;;;;;;;7.70;2.23;;;;;;;15.18;55.78;100158.16;4931665;29;20220;-69
2022/05/30 07:21:05;;;;;;;3.53;2.13;;;;;;;15.27;55.39;100158.88;4933242;29;20306;-69
2022/05/30 07:23:37;;;;;;;5.83;1.90;;;;;;;15.35;55.38;100162.28;4933631;29;20602;-68
2022/05/30 07:26:08;;;;;;;4.63;1.77;;;;;;;15.39;54.80;100162.75;4933698;29;20208;-69
2022/05/30 07:28:36;;;;;;;5.27;1.83;;;;;;;15.47;54.61;100165.31;4930812;29;20232;-69
2022/05/30 07:31:06;;;;;;;5.07;1.90;;;;;;;15.48;53.97;100160.81;4932656;29;20681;-69
2022/05/30 07:33:40;;;;;;;4.73;2.27;;;;;;;15.53;54.87;100161.06;4931158;28;20216;-69
2022/05/30 07:36:11;;;;;;;5.03;1.40;;;;;;;15.61;54.08;100161.81;4934052;29;20216;-69
2022/05/30 07:38:42;;;;;;;2.40;1.40;;;;;;;15.73;52.43;100162.16;4932384;29;20211;-68
2022/05/30 07:41:12;;;;;;;6.23;1.10;;;;;;;15.72;51.82;100171.19;4934326;29;20650;-70
2022/05/30 07:43:42;;;;;;;3.80;1.10;;;;;;;15.71;50.85;100169.53;4930665;29;20953;-70
2022/05/30 07:46:11;;;;;;;3.57;1.10;;;;;;;15.70;50.64;100166.03;4930995;29;20306;-70
2022/05/30 07:48:41;;;;;;;3.57;1.00;;;;;;;15.75;50.18;100165.44;4933724;29;20232;-70
2022/05/30 07:51:12;;;;;;;1.87;0.80;;;;;;;15.65;51.22;100165.78;4928754;29;20252;-70
2022/05/30 07:53:41;;;;;;;2.33;1.20;;;;;;;15.75;52.07;100163.59;4932295;29;20218;-69
2022/05/30 07:56:12;;;;;;;3.37;1.30;;;;;;;15.79;51.92;100164.06;4933158;29;20262;-69
2022/05/30 07:58:40;;;;;;;5.13;1.37;;;;;;;15.84;51.54;100166.16;4935233;29;20188;-70
2022/05/30 08:01:13;;;;;;;3.60;1.67;;;;;;;15.94;51.66;100167.50;4931703;29;20272;-70
2022/05/30 08:03:42;;;;;;;4.00;1.30;;;;;;;16.01;51.76;100167.56;4933213;29;20220;-70
2022/05/30 08:06:14;;;;;;;8.10;2.10;;;;;;;16.09;51.60;100156.78;4938813;29;20208;-70
2022/05/30 08:08:43;;;;;;;3.57;1.60;;;;;;;16.11;50.73;100168.91;4933485;29;20249;-70
2022/05/30 08:11:11;;;;;;;4.37;1.60;;;;;;;16.06;50.36;100159.81;4930301;29;20681;-69
2022/05/30 08:13:48;;;;;;;7.17;1.80;;;;;;;16.06;50.64;100166.00;4930761;29;20217;-69
2022/05/30 08:16:19;;;;;;;4.17;1.37;;;;;;;16.14;50.26;100152.50;4933907;29;20311;-70
2022/05/30 08:19:09;;;;;;;5.33;1.17;;;;;;;16.39;50.05;100162.78;4927880;29;20218;-71
2022/05/30 08:22:07;;;;;;;3.73;1.00;;;;;;;16.52;49.62;100166.41;4935020;29;20216;-70
2022/05/30 08:24:40;;;;;;;3.27;1.47;;;;;;;16.65;48.88;100176.41;4931096;29;20230;-70
2022/05/30 08:27:10;;;;;;;4.67;1.60;;;;;;;16.73;48.93;100168.22;4930990;29;20212;-70
2022/05/30 08:29:38;;;;;;;2.50;1.00;;;;;;;16.86;47.72;100171.00;4931575;29;20260;-69
2022/05/30 08:32:07;;;;;;;6.33;1.27;;;;;;;16.90;48.05;100169.59;4932489;29;20724;-70
2022/05/30 08:34:35;;;;;;;4.50;1.50;;;;;;;17.00;47.23;100173.75;4940591;29;20535;-70
2022/05/30 08:37:05;;;;;;;2.17;1.30;;;;;;;17.02;47.20;100166.38;4944893;29;20306;-71
2022/05/30 08:42:27;;;;;;;5.43;1.77;;;;;;;16.90;47.27;100172.25;4929400;29;20574;-69
2022/05/30 08:44:55;;;;;;;4.03;1.47;;;;;;;17.05;47.03;100172.16;4930417;29;20327;-69
2022/05/30 08:47:41;;;;;;;4.67;1.20;;;;;;;17.19;46.76;100173.88;4935038;29;20294;-71
2022/05/30 08:50:14;;;;;;;4.67;1.23;;;;;;;17.31;47.31;100171.47;4932387;29;20221;-71
2022/05/30 08:53:12;;;;;;;4.80;1.50;;;;;;;17.42;46.13;100167.38;4932850;29;20677;-69
2022/05/30 08:55:47;;;;;;;5.90;1.50;;;;;;;17.57;46.11;100171.59;4924237;29;20247;-68
2022/05/30 08:58:33;;;;;;;4.37;1.00;;;;;;;17.71;46.56;100172.47;4930240;29;20609;-69
2022/05/30 09:01:04;;;;;;;1.90;1.07;;;;;;;17.81;45.87;100161.38;4930330;29;20901;-68
2022/05/30 09:03:37;;;;;;;3.70;1.30;;;;;;;17.90;45.27;100165.53;4930314;29;20218;-68
2022/05/30 09:06:11;;;;;;;3.07;1.20;;;;;;;18.12;45.32;100176.94;4927887;29;20275;-69
2022/05/30 09:08:46;;;;;;;4.20;1.37;;;;;;;18.17;44.91;100171.78;4923314;29;20237;-71
2022/05/30 09:11:33;;;;;;;5.43;1.33;;;;;;;18.27;45.83;100173.03;4925991;29;20289;-70
2022/05/30 09:14:06;;;;;;;4.60;1.17;;;;;;;18.38;45.38;100180.44;4929374;29;20220;-71
2022/05/30 09:16:39;;;;;;;4.33;1.47;;;;;;;18.47;44.33;100173.00;4930027;29;20211;-71
2022/05/30 09:19:10;;;;;;;2.77;1.27;;;;;;;18.28;43.75;100172.00;4927681;29;20620;-71
2022/05/30 09:21:40;;;;;;;5.40;2.03;;;;;;;18.04;44.15;100180.59;4929216;29;20243;-72
2022/05/30 09:24:14;;;;;;;4.03;1.07;;;;;;;17.85;44.21;100168.00;4925185;29;20534;-71
2022/05/30 09:26:42;;;;;;;1.67;0.70;;;;;;;17.72;45.20;100173.31;4927722;29;20208;-71
2022/05/30 09:29:17;;;;;;;3.17;1.00;;;;;;;17.60;45.57;100173.03;4933055;29;20267;-70
2022/05/30 09:32:02;;;;;;;1.93;0.90;;;;;;;17.54;44.52;100173.84;4929935;29;20235;-68
2022/05/30 09:34:37;;;;;;;3.27;1.07;;;;;;;17.41;43.98;100176.47;4931653;29;20214;-68
2022/05/30 09:37:06;;;;;;;2.97;1.20;;;;;;;17.32;44.88;100164.28;4930850;29;20673;-69
2022/05/30 09:39:48;;;;;;;2.87;1.17;;;;;;;17.30;45.15;100159.09;4933451;29;20207;-69
2022/05/30 09:42:28;;;;;;;3.13;1.07;;;;;;;17.26;45.73;100168.56;4932496;29;20244;-68
2022/05/30 09:45:00;;;;;;;3.63;1.43;;;;;;;17.27;45.19;100167.53;4927983;29;20271;-68
2022/05/30 09:47:28;;;;;;;3.60;1.10;;;;;;;17.42;44.59;100160.16;4933278;29;20204;-70
2022/05/30 09:49:56;;;;;;;3.40;1.13;;;;;;;17.75;43.81;100164.88;4928873;29;20812;-69
2022/05/30 09:52:35;;;;;;;4.33;1.10;;;;;;;17.99;43.41;100164.31;4928509;29;20215;-69
2022/05/30 09:55:24;;;;;;;1.90;0.83;;;;;;;18.27;43.97;100159.59;4926057;29;20212;-68
2022/05/30 09:57:58;;;;;;;3.57;1.00;;;;;;;18.51;43.98;100163.53;4928389;29;20208;-68
2022/05/30 10:00:38;;;;;;;5.43;1.47;;;;;;;18.68;41.88;100154.03;4930246;29;20692;-68
2022/05/30 10:03:12;;;;;;;3.67;0.83;;;;;;;18.60;42.52;100151.56;4928268;29;20211;-69
2022/05/30 10:05:46;;;;;;;4.50;1.57;;;;;;;18.52;42.78;100164.34;4931556;29;20471;-70
2022/05/30 10:08:26;;;;;;;7.63;1.00;;;;;;;18.56;42.20;100162.91;4928133;29;20286;-69
2022/05/30 10:10:56;;;;;;;1.63;0.63;;;;;;;18.50;41.63;100166.41;4929897;29;20239;-68
2022/05/30 10:13:34;;;;;;;4.03;1.23;;;;;;;18.37;41.81;100162.72;4928379;29;20218;-70
2022/05/30 10:16:05;;;;;;;5.80;1.23;;;;;;;18.18;41.96;100151.97;4927132;29;20244;-71
2022/05/30 10:18:35;;;;;;;5.33;0.93;;;;;;;18.00;41.84;100155.22;4927815;29;21198;-70
2022/05/30 10:21:13;;;;;;;2.27;0.90;;;;;;;17.84;42.34;100156.44;4927629;29;20239;-69
2022/05/30 10:29:56;;;;;;;6.63;1.00;;;;;;;17.44;42.68;100154.63;4930791;29;20259;-71
2022/05/30 10:32:32;;;;;;;3.17;1.10;;;;;;;17.36;42.92;100147.56;4931907;29;20231;-69
2022/05/30 10:35:20;;;;;;;2.30;0.80;;;;;;;17.46;42.13;100152.56;4931173;29;20199;-69
2022/05/30 10:38:12;;;;;;;1.23;0.80;;;;;;;17.77;41.88;100157.44;4929348;29;20192;-70
2022/05/30 10:40:51;;;;;;;5.43;1.23;;;;;;;18.04;42.50;100159.16;4932378;29;20295;-70
2022/05/30 10:43:26;;;;;;;4.13;0.80;;;;;;;18.42;42.07;100160.22;4933818;29;20211;-70
2022/05/30 10:45:58;;;;;;;3.33;0.90;;;;;;;18.70;41.85;100162.72;4939046;29;20661;-70
2022/05/30 10:48:32;;;;;;;2.57;0.83;;;;;;;18.87;40.53;100152.38;4932720;29;20208;-71
2022/05/30 10:51:08;;;;;;;2.33;0.90;;;;;;;19.12;40.32;100155.19;4936300;29;20230;-69
2022/05/30 10:53:46;;;;;;;3.13;1.10;;;;;;;19.32;39.84;100155.97;4931599;29;20254;-71
2022/05/30 10:56:18;;;;;;;4.53;0.90;;;;;;;19.45;38.81;100152.38;4928758;29;20215;-70
2022/05/30 10:58:58;;;;;;;2.77;0.70;;;;;;;19.56;38.74;100157.13;4929700;29;20216;-72
2022/05/30 11:01:42;;;;;;;1.97;0.90;;;;;;;19.66;38.50;100157.50;4930479;29;20204;-70
2022/05/30 11:04:33;;;;;;;4.30;1.00;;;;;;;19.45;38.44;100160.44;4930251;29;20293;-71
2022/05/30 11:07:21;;;;;;;3.07;0.80;;;;;;;19.32;38.92;100160.53;4928404;29;20335;-70
2022/05/30 11:09:56;;;;;;;3.90;1.33;;;;;;;19.34;40.10;100153.91;4927505;29;20235;-73
2022/05/30 11:12:29;;;;;;;5.33;1.30;;;;;;;19.47;39.40;100158.38;4930884;29;20204;-75
2022/05/30 11:15:07;;;;;;;3.83;1.20;;;;;;;19.55;39.07;100163.53;4930561;29;20223;-75
2022/05/30 11:18:01;;;;;;;3.33;0.80;;;;;;;19.83;40.04;100161.34;4929547;29;20215;-71
2022/05/30 11:20:34;;;;;;;4.00;1.20;;;;;;;19.91;39.34;100165.63;4933762;29;20600;-74
2022/05/30 11:23:07;;;;;;;2.47;0.80;;;;;;;19.76;38.76;100163.25;4930280;29;20238;-72
2022/05/30 11:25:53;;;;;;;2.70;0.80;;;;;;;19.52;38.53;100162.13;4931279;29;20204;-72
2022/05/30 11:28:35;;;;;;;4.13;0.80;;;;;;;19.36;39.43;100161.72;4932798;29;20303;-74
2022/05/30 11:31:13;;;;;;;1.53;0.77;;;;;;;19.19;37.83;100164.06;4924669;29;20291;-72
2022/05/30 11:33:59;;;;;;;2.03;0.77;;;;;;;19.11;38.26;100170.50;4931957;29;20207;-70
2022/05/30 11:36:52;;;;;;;5.03;1.07;;;;;;;19.14;38.41;100170.09;4932135;29;20207;-71
2022/05/30 11:39:32;;;;;;;4.50;0.87;;;;;;;19.12;39.60;100168.63;4931307;29;20601;-73
2022/05/30 11:42:10;;;;;;;1.93;0.80;;;;;;;19.32;39.70;100165.91;4926983;29;20216;-71
2022/05/30 11:44:51;;;;;;;3.00;0.80;;;;;;;19.36;38.95;100170.63;4935284;29;20204;-72
2022/05/30 11:47:42;;;;;;;4.97;0.83;;;;;;;19.32;39.13;100163.22;4929503;29;20693;-72
2022/05/30 11:50:23;;;;;;;2.03;0.70;;;;;;;19.34;39.00;100158.44;4928888;29;20236;-73
2022/05/30 11:53:21;;;;;;;2.33;0.87;;;;;;;19.54;39.27;100168.09;4925749;29;20244;-74
2022/05/30 11:55:58;;;;;;;2.43;0.73;;;;;;;19.53;39.38;100166.44;4923459;29;20243;-73
2022/05/30 11:58:39;;;;;;;4.10;0.90;;;;;;;19.39;38.93;100166.69;4926865;29;20208;-71
2022/05/30 12:01:12;;;;;;;6.13;0.70;;;;;;;19.35;38.95;100165.47;4930666;29;20215;-72